createdAt,value
2018-07-15T00:01:55.587Z,70.30
2018-07-15T00:04:25.322Z,71.00
2018-07-15T00:06:55.342Z,71.30
2018-07-15T00:09:25.390Z,71.40
2018-07-15T00:11:55.450Z,71.40
2018-07-15T00:14:25.315Z,71.30
2018-07-15T00:16:56.439Z,71.30
2018-07-15T00:19:26.351Z,70.90
2018-07-15T00:21:56.028Z,70.80
2018-07-15T00:24:26.027Z,70.90
2018-07-15T00:26:56.050Z,71.00
2018-07-15T00:29:26.081Z,70.80
2018-07-15T00:31:56.098Z,71.20
2018-07-15T00:34:25.813Z,71.10
2018-07-15T00:36:55.543Z,71.70
2018-07-15T00:39:25.509Z,71.10
2018-07-15T00:41:55.506Z,71.10
2018-07-15T00:44:25.651Z,71.20
2018-07-15T00:46:55.631Z,71.40
2018-07-15T00:49:25.354Z,71.40
2018-07-15T00:51:55.075Z,71.50
2018-07-15T00:54:25.048Z,71.30
2018-07-15T00:56:55.094Z,71.50
2018-07-15T00:59:25.092Z,71.70
2018-07-15T01:01:55.072Z,72.20
2018-07-15T01:04:24.768Z,72.60
2018-07-15T01:06:54.524Z,72.90
2018-07-15T01:09:24.266Z,73.10
2018-07-15T01:11:54.242Z,73.60
2018-07-15T01:14:24.001Z,73.60
2018-07-15T01:16:53.723Z,74.20
2018-07-15T01:19:23.465Z,74.20
2018-07-15T01:21:53.158Z,74.20
2018-07-15T01:24:22.932Z,74.50
2018-07-15T01:26:52.651Z,73.90
2018-07-15T01:29:22.424Z,74.20
2018-07-15T01:31:52.550Z,74.40
2018-07-15T01:34:22.319Z,74.20
2018-07-15T01:36:52.022Z,73.70
2018-07-15T01:39:21.800Z,73.90
2018-07-15T01:41:51.494Z,73.90
2018-07-15T01:44:21.219Z,74.20
2018-07-15T01:46:50.959Z,74.30
2018-07-15T01:49:20.683Z,74.40
2018-07-15T01:51:50.415Z,74.60
2018-07-15T01:54:20.123Z,74.50
2018-07-15T01:56:49.827Z,74.60
2018-07-15T01:59:19.547Z,74.70
2018-07-15T02:01:49.256Z,74.90
2018-07-15T02:04:18.990Z,75.00
2018-07-15T02:06:48.708Z,75.70
2018-07-15T02:09:18.437Z,75.30
2018-07-15T02:11:48.150Z,75.20
2018-07-15T02:14:17.878Z,75.90
2018-07-15T02:16:47.970Z,76.40
2018-07-15T02:19:17.743Z,76.70
2018-07-15T02:21:47.503Z,77.10
2018-07-15T02:24:17.243Z,77.20
2018-07-15T02:26:46.967Z,77.50
2018-07-15T02:29:16.712Z,77.90
2018-07-15T02:31:46.446Z,78.00
2018-07-15T02:34:16.223Z,78.10
2018-07-15T02:36:45.991Z,77.80
2018-07-15T02:39:15.901Z,77.90
2018-07-15T02:41:45.612Z,78.10
2018-07-15T02:46:44.723Z,78.40
2018-07-15T02:49:14.443Z,78.40
2018-07-15T02:51:45.045Z,78.30
2018-07-15T02:54:14.763Z,78.40
2018-07-15T02:56:45.153Z,78.30
2018-07-15T02:59:15.287Z,78.90
2018-07-15T03:01:45.013Z,78.10
2018-07-15T03:04:14.699Z,78.00
2018-07-15T03:06:44.408Z,78.10
2018-07-15T03:09:14.102Z,78.10
2018-07-15T03:11:43.827Z,78.60
2018-07-15T03:14:13.604Z,78.50
2018-07-15T03:16:43.319Z,78.10
2018-07-15T03:19:13.019Z,78.30
2018-07-15T03:21:43.043Z,77.90
2018-07-15T03:24:12.959Z,77.70
2018-07-15T03:26:42.932Z,77.90
2018-07-15T03:29:12.656Z,77.90
2018-07-15T03:31:42.324Z,77.80
2018-07-15T03:34:12.109Z,77.90
2018-07-15T03:36:41.991Z,78.00
2018-07-15T03:39:11.708Z,78.50
2018-07-15T03:41:41.436Z,77.90
2018-07-15T03:44:11.218Z,78.30
2018-07-15T03:46:40.923Z,78.40
2018-07-15T03:49:10.648Z,78.20
2018-07-15T03:51:40.328Z,78.30
2018-07-15T03:54:10.062Z,78.50
2018-07-15T03:56:39.812Z,78.50
2018-07-15T03:59:09.554Z,78.10
2018-07-15T04:01:39.276Z,77.80
2018-07-15T04:04:09.014Z,78.30
2018-07-15T04:06:38.765Z,78.60
2018-07-15T04:09:08.467Z,78.20
2018-07-15T04:11:38.228Z,78.50
2018-07-15T04:14:07.937Z,78.20
2018-07-15T04:16:37.658Z,78.10
2018-07-15T04:19:07.392Z,78.10
2018-07-15T04:21:37.148Z,78.70
2018-07-15T04:24:06.871Z,79.50
2018-07-15T04:26:36.608Z,79.60
2018-07-15T04:29:06.330Z,80.50
2018-07-15T04:31:36.146Z,80.30
2018-07-15T04:34:05.904Z,80.50
2018-07-15T04:36:35.646Z,80.50
2018-07-15T04:39:07.374Z,80.30
2018-07-15T04:41:37.145Z,80.30
2018-07-15T04:44:07.423Z,80.50
2018-07-15T04:46:37.206Z,80.40
2018-07-15T04:49:06.939Z,80.20
2018-07-15T04:51:36.753Z,80.10
2018-07-15T04:54:06.703Z,80.00
2018-07-15T04:56:36.426Z,79.50
2018-07-15T04:59:06.155Z,80.00
2018-07-15T05:01:40.074Z,80.00
2018-07-15T05:04:10.322Z,79.90
2018-07-15T05:06:40.055Z,80.00
2018-07-15T05:09:09.760Z,79.80
2018-07-15T05:11:39.679Z,79.90
2018-07-15T05:14:09.395Z,79.80
2018-07-15T05:16:39.144Z,79.40
2018-07-15T05:19:08.843Z,79.80
2018-07-15T05:21:38.622Z,79.40
2018-07-15T05:24:08.674Z,79.40
2018-07-15T05:26:38.383Z,79.10
2018-07-15T05:29:08.526Z,78.90
2018-07-15T05:31:38.394Z,78.70
2018-07-15T05:34:08.156Z,79.10
2018-07-15T05:36:37.883Z,79.00
2018-07-15T05:39:07.660Z,78.00
2018-07-15T05:41:37.381Z,77.40
2018-07-15T05:44:07.168Z,78.70
2018-07-15T05:46:36.936Z,77.90
2018-07-15T05:49:06.672Z,77.60
2018-07-15T05:51:36.444Z,77.20
2018-07-15T05:54:06.236Z,77.00
2018-07-15T05:56:35.939Z,76.20
2018-07-15T05:59:05.618Z,75.80
2018-07-15T06:01:35.341Z,75.50
2018-07-15T06:04:05.099Z,73.50
2018-07-15T06:06:34.858Z,72.70
2018-07-15T06:09:05.566Z,72.00
2018-07-15T06:11:35.422Z,71.10
2018-07-15T06:14:05.172Z,71.50
2018-07-15T06:16:35.287Z,70.00
2018-07-15T06:19:05.384Z,69.70
2018-07-15T06:21:35.158Z,69.70
2018-07-15T06:24:04.955Z,70.50
2018-07-15T06:26:35.557Z,69.80
2018-07-15T06:29:05.618Z,69.00
2018-07-15T06:31:35.720Z,68.20
2018-07-15T06:36:34.958Z,65.80
2018-07-15T06:39:06.202Z,65.50
2018-07-15T06:41:36.263Z,63.30
2018-07-15T06:44:06.177Z,63.60
2018-07-15T06:46:36.020Z,62.70
2018-07-15T06:49:06.160Z,64.00
2018-07-15T06:51:40.072Z,60.90
2018-07-15T06:54:09.943Z,62.90
2018-07-15T06:56:39.678Z,60.40
2018-07-15T06:59:09.363Z,61.80
2018-07-15T07:01:39.167Z,60.30
2018-07-15T07:04:09.090Z,59.50
2018-07-15T07:06:38.827Z,60.10
2018-07-15T07:09:08.784Z,60.00
2018-07-15T07:11:38.596Z,60.50
2018-07-15T07:14:08.354Z,60.50
2018-07-15T07:16:41.316Z,59.40
2018-07-15T07:19:12.701Z,59.20
2018-07-15T07:21:42.665Z,59.50
2018-07-15T07:24:12.393Z,59.10
2018-07-15T07:26:42.148Z,60.10
2018-07-15T07:29:12.227Z,59.60
2018-07-15T07:31:42.144Z,60.20
2018-07-15T07:34:12.299Z,59.30
2018-07-15T07:36:42.289Z,61.00
2018-07-15T07:39:12.000Z,59.20
2018-07-15T07:41:41.666Z,59.80
2018-07-15T07:44:11.396Z,59.40
2018-07-15T07:46:41.140Z,58.30
2018-07-15T07:49:10.850Z,58.20
2018-07-15T07:51:41.345Z,58.00
2018-07-15T07:54:11.363Z,57.80
2018-07-15T07:56:41.076Z,58.10
2018-07-15T07:59:10.996Z,56.80
2018-07-15T08:01:40.766Z,56.60
2018-07-15T08:04:10.515Z,56.90
2018-07-15T08:06:41.620Z,55.60
2018-07-15T08:09:13.378Z,54.80
2018-07-15T08:11:43.043Z,54.20
2018-07-15T08:14:13.126Z,54.70
2018-07-15T08:16:42.887Z,52.90
2018-07-15T08:19:12.639Z,53.00
2018-07-15T08:21:42.034Z,52.90
2018-07-15T08:24:11.453Z,52.90
2018-07-15T08:26:41.118Z,53.00
2018-07-15T08:29:10.906Z,53.80
2018-07-15T08:31:40.570Z,51.10
2018-07-15T08:34:10.322Z,51.30
2018-07-15T08:36:40.000Z,50.60
2018-07-15T08:39:09.731Z,51.20
2018-07-15T08:41:39.420Z,50.60
2018-07-15T08:44:09.323Z,51.20
2018-07-15T08:46:39.003Z,51.20
2018-07-15T08:49:08.692Z,50.50
2018-07-15T08:51:38.375Z,51.40
2018-07-15T08:54:08.084Z,51.40
2018-07-15T08:56:37.911Z,51.40
2018-07-15T08:59:07.611Z,50.30
2018-07-15T09:01:37.294Z,50.60
2018-07-15T09:04:07.006Z,49.70
2018-07-15T09:06:36.695Z,51.40
2018-07-15T09:09:06.788Z,50.90
2018-07-15T09:11:36.448Z,52.50
2018-07-15T09:14:06.563Z,49.50
2018-07-15T09:16:36.243Z,51.20
2018-07-15T09:19:05.946Z,50.40
2018-07-15T09:21:35.619Z,50.00
2018-07-15T09:24:05.360Z,51.10
2018-07-15T09:26:35.406Z,50.60
2018-07-15T09:29:05.227Z,50.10
2018-07-15T09:31:34.896Z,51.50
2018-07-15T09:34:04.649Z,52.00
2018-07-15T09:36:34.043Z,49.40
2018-07-15T09:39:04.574Z,51.10
2018-07-15T09:41:34.270Z,50.40
2018-07-15T09:44:04.004Z,51.70
2018-07-15T09:46:33.711Z,50.10
2018-07-15T09:49:03.402Z,50.30
2018-07-15T09:51:33.434Z,50.80
2018-07-15T09:54:03.168Z,50.40
2018-07-15T09:56:32.527Z,50.30
2018-07-15T09:59:02.807Z,49.20
2018-07-15T10:01:32.476Z,48.30
2018-07-15T10:04:02.186Z,48.80
2018-07-15T10:06:31.875Z,49.00
2018-07-15T10:09:01.575Z,47.60
2018-07-15T10:11:30.963Z,48.70
2018-07-15T10:14:00.715Z,48.00
2018-07-15T10:16:30.410Z,47.50
2018-07-15T10:19:00.121Z,48.90
2018-07-15T10:21:30.003Z,48.60
2018-07-15T10:23:59.686Z,48.00
2018-07-15T10:26:29.389Z,48.60
2018-07-15T10:28:59.360Z,49.20
2018-07-15T10:31:29.091Z,47.90
2018-07-15T10:33:58.825Z,48.10
2018-07-15T10:36:28.527Z,46.50
2018-07-15T10:38:58.248Z,48.60
2018-07-15T10:41:28.122Z,48.00
2018-07-15T10:43:57.806Z,48.00
2018-07-15T10:46:27.535Z,47.50
2018-07-15T10:48:57.255Z,45.50
2018-07-15T10:51:27.598Z,44.20
2018-07-15T10:53:57.297Z,44.90
2018-07-15T10:56:27.137Z,45.90
2018-07-15T10:58:56.827Z,45.80
2018-07-15T11:01:26.624Z,46.10
2018-07-15T11:03:56.334Z,44.40
2018-07-15T11:06:26.552Z,43.90
2018-07-15T11:08:56.346Z,42.00
2018-07-15T11:11:26.126Z,43.30
2018-07-15T11:13:55.870Z,42.70
2018-07-15T11:16:25.653Z,46.40
2018-07-15T11:18:55.199Z,44.90
2018-07-15T11:21:24.965Z,45.80
2018-07-15T11:23:54.990Z,44.80
2018-07-15T11:26:24.700Z,43.60
2018-07-15T11:28:54.402Z,43.80
2018-07-15T11:31:24.217Z,43.60
2018-07-15T11:33:54.108Z,41.60
2018-07-15T11:36:23.839Z,42.00
2018-07-15T11:38:53.263Z,43.00
2018-07-15T11:41:22.963Z,43.40
2018-07-15T11:43:52.678Z,42.90
2018-07-15T11:46:22.421Z,43.00
2018-07-15T11:48:52.127Z,42.80
2018-07-15T11:51:21.859Z,42.60
2018-07-15T11:53:51.547Z,42.90
2018-07-15T11:56:21.635Z,43.30
2018-07-15T11:58:51.480Z,43.10
2018-07-15T12:01:21.318Z,44.50
2018-07-15T12:03:51.063Z,45.10
2018-07-15T12:06:21.145Z,45.10
2018-07-15T12:08:50.895Z,43.80
2018-07-15T12:11:20.587Z,43.60
2018-07-15T12:13:50.753Z,43.10
2018-07-15T12:16:20.878Z,43.60
2018-07-15T12:18:50.638Z,43.30
2018-07-15T12:21:20.343Z,44.30
2018-07-15T12:23:50.058Z,43.10
2018-07-15T12:26:19.887Z,43.50
2018-07-15T12:28:49.603Z,42.90
2018-07-15T12:31:21.234Z,43.40
2018-07-15T12:33:51.008Z,43.10
2018-07-15T12:36:20.726Z,44.90
2018-07-15T12:38:50.479Z,45.70
2018-07-15T12:41:20.256Z,45.00
2018-07-15T12:43:50.511Z,46.80
2018-07-15T12:46:20.244Z,46.70
2018-07-15T12:48:49.987Z,47.40
2018-07-15T12:51:19.802Z,46.70
2018-07-15T12:53:49.529Z,46.70
2018-07-15T12:56:19.405Z,46.60
2018-07-15T12:58:49.148Z,44.00
2018-07-15T13:01:18.831Z,43.00
2018-07-15T13:03:48.528Z,42.90
2018-07-15T13:06:18.240Z,43.40
2018-07-15T13:08:48.023Z,46.00
2018-07-15T13:11:17.718Z,52.10
2018-07-15T13:13:49.017Z,58.60
2018-07-15T13:16:19.339Z,58.80
2018-07-15T13:18:49.257Z,62.70
2018-07-15T13:21:18.966Z,66.20
2018-07-15T13:23:48.707Z,69.20
2018-07-15T13:26:19.498Z,71.20
2018-07-15T13:28:49.670Z,73.80
2018-07-15T13:31:19.342Z,74.10
2018-07-15T13:33:49.103Z,73.40
2018-07-15T13:36:18.787Z,73.80
2018-07-15T13:38:48.508Z,73.50
2018-07-15T13:41:18.170Z,75.70
2018-07-15T13:43:47.890Z,77.30
2018-07-15T13:46:17.916Z,77.00
2018-07-15T13:48:47.624Z,77.20
2018-07-15T13:51:17.295Z,76.60
2018-07-15T13:53:47.000Z,76.50
2018-07-15T13:56:16.708Z,77.10
2018-07-15T13:58:46.415Z,77.20
2018-07-15T14:01:16.123Z,77.70
2018-07-15T14:03:50.670Z,77.80
2018-07-15T14:06:20.524Z,77.60
2018-07-15T14:08:50.472Z,78.40
2018-07-15T14:11:20.188Z,78.20
2018-07-15T14:13:50.486Z,77.60
2018-07-15T14:16:20.287Z,78.40
2018-07-15T14:18:49.995Z,79.00
2018-07-15T14:21:19.707Z,80.60
2018-07-15T14:23:49.715Z,80.90
2018-07-15T14:26:19.411Z,81.20
2018-07-15T14:28:49.903Z,81.20
2018-07-15T14:31:19.631Z,83.30
2018-07-15T14:33:53.714Z,82.10
2018-07-15T14:36:23.408Z,83.80
2018-07-15T14:38:53.159Z,84.30
2018-07-15T14:41:23.292Z,82.80
2018-07-15T14:43:53.071Z,79.80
2018-07-15T14:46:22.778Z,78.70
2018-07-15T14:53:51.159Z,79.80
2018-07-15T14:56:20.989Z,79.10
2018-07-15T14:58:50.744Z,80.40
2018-07-15T15:01:20.471Z,77.80
2018-07-15T15:03:50.199Z,78.80
2018-07-15T15:06:19.890Z,78.40
2018-07-15T15:08:49.700Z,78.40
2018-07-15T15:11:19.412Z,81.60
2018-07-15T15:13:49.211Z,78.90
2018-07-15T15:16:18.923Z,80.10
2018-07-15T15:18:48.668Z,77.50
2018-07-15T15:21:18.372Z,79.50
2018-07-15T15:23:48.324Z,74.20
2018-07-15T15:26:18.086Z,80.50
2018-07-15T15:28:47.856Z,74.80
2018-07-15T15:31:18.340Z,81.30
2018-07-15T15:33:48.640Z,76.90
2018-07-15T15:36:18.536Z,75.70
2018-07-15T15:38:48.323Z,80.90
2018-07-15T15:41:18.314Z,82.90
2018-07-15T15:43:48.250Z,84.30
2018-07-15T15:46:18.006Z,84.10
2018-07-15T15:48:48.327Z,82.90
2018-07-15T15:51:18.458Z,85.50
2018-07-15T15:53:48.624Z,86.00
2018-07-15T15:56:19.004Z,85.60
2018-07-15T15:58:49.431Z,86.40
2018-07-15T16:01:19.188Z,87.40
2018-07-15T16:03:49.621Z,84.30
2018-07-15T16:06:19.331Z,80.20
2018-07-15T16:08:49.078Z,81.00
2018-07-15T16:11:18.791Z,84.00
2018-07-15T16:13:48.528Z,86.20
2018-07-15T16:16:18.262Z,86.20
2018-07-15T16:18:48.007Z,85.20
2018-07-15T16:21:17.714Z,82.90
2018-07-15T16:23:47.464Z,78.60
2018-07-15T16:26:17.191Z,78.20
2018-07-15T16:28:46.967Z,80.20
2018-07-15T16:31:16.683Z,84.00
2018-07-15T16:33:46.476Z,85.10
2018-07-15T16:36:16.376Z,85.40
2018-07-15T16:38:46.074Z,86.40
2018-07-15T16:41:15.778Z,86.60
2018-07-15T16:43:45.454Z,86.60
2018-07-15T16:46:15.234Z,87.00
2018-07-15T16:48:44.930Z,86.10
2018-07-15T16:51:14.654Z,87.40
2018-07-15T16:53:44.454Z,85.50
2018-07-15T16:56:14.263Z,84.90
2018-07-15T16:58:44.515Z,85.30
2018-07-15T17:01:14.243Z,83.50
2018-07-15T17:03:43.927Z,82.80
2018-07-15T17:06:13.677Z,82.10
2018-07-15T17:08:43.338Z,83.80
2018-07-15T17:11:13.116Z,81.90
2018-07-15T17:13:42.974Z,80.60
2018-07-15T17:16:13.518Z,80.20
2018-07-15T17:18:44.471Z,80.30
2018-07-15T17:21:14.189Z,82.20
2018-07-15T17:23:43.934Z,82.00
2018-07-15T17:26:13.672Z,82.90
2018-07-15T17:28:43.391Z,81.90
2018-07-15T17:31:13.118Z,81.50
2018-07-15T17:33:42.849Z,80.00
2018-07-15T17:36:16.236Z,80.50
2018-07-15T17:38:46.342Z,84.20
2018-07-15T17:41:16.123Z,85.50
2018-07-15T17:43:45.815Z,85.70
2018-07-15T17:46:15.566Z,86.00
2018-07-15T17:48:45.488Z,85.80
2018-07-15T17:51:15.579Z,85.70
2018-07-15T17:53:45.274Z,83.50
2018-07-15T17:56:15.023Z,84.80
2018-07-15T17:58:47.212Z,85.00
2018-07-15T18:01:17.337Z,85.90
2018-07-15T18:03:47.094Z,84.80
2018-07-15T18:06:17.431Z,86.20
2018-07-15T18:08:47.224Z,86.80
2018-07-15T18:11:17.343Z,86.50
2018-07-15T18:13:47.201Z,86.30
2018-07-15T18:16:16.982Z,86.50
2018-07-15T18:18:46.820Z,86.60
2018-07-15T18:21:16.554Z,87.50
2018-07-15T18:23:46.267Z,86.70
2018-07-15T18:26:15.995Z,86.70
2018-07-15T18:28:47.202Z,86.40
2018-07-15T18:31:16.966Z,87.00
2018-07-15T18:33:47.002Z,87.70
2018-07-15T18:36:16.829Z,87.90
2018-07-15T18:38:46.554Z,88.20
2018-07-15T18:41:16.352Z,87.90
2018-07-15T18:43:46.207Z,87.90
2018-07-15T18:46:15.987Z,88.50
2018-07-15T18:48:45.746Z,87.70
2018-07-15T18:53:44.841Z,85.30
2018-07-15T18:56:15.917Z,87.30
2018-07-15T18:58:45.691Z,85.50
2018-07-15T19:01:15.443Z,83.10
2018-07-15T19:06:14.672Z,84.00
2018-07-15T19:08:44.657Z,82.90
2018-07-15T19:11:14.380Z,81.30
2018-07-15T19:13:44.123Z,83.10
2018-07-15T19:16:13.860Z,83.70
2018-07-15T19:18:43.624Z,83.60
2018-07-15T19:21:13.495Z,83.30
2018-07-15T19:23:43.944Z,83.40
2018-07-15T19:26:13.667Z,81.30
2018-07-15T19:28:43.402Z,81.70
2018-07-15T19:31:13.120Z,82.30
2018-07-15T19:33:43.143Z,81.60
2018-07-15T19:36:13.070Z,80.60
2018-07-15T19:38:44.473Z,81.50
2018-07-15T19:41:14.207Z,82.30
2018-07-15T19:43:43.916Z,83.90
2018-07-15T19:46:13.630Z,83.80
2018-07-15T19:48:43.357Z,84.30
2018-07-15T19:51:13.074Z,84.10
2018-07-15T19:53:42.804Z,84.30
2018-07-15T19:56:12.515Z,84.80
2018-07-15T19:58:42.246Z,85.40
2018-07-15T20:01:12.073Z,85.10
2018-07-15T20:03:41.954Z,86.10
2018-07-15T20:06:12.160Z,85.10
2018-07-15T20:08:41.860Z,85.80
2018-07-15T20:11:12.528Z,86.60
2018-07-15T20:13:42.227Z,87.10
2018-07-15T20:16:12.021Z,87.50
2018-07-15T20:18:41.738Z,86.50
2018-07-15T20:21:11.460Z,84.80
2018-07-15T20:23:41.175Z,84.60
2018-07-15T20:26:11.215Z,84.30
2018-07-15T20:28:40.999Z,83.40
2018-07-15T20:31:10.692Z,83.50
2018-07-15T20:33:40.626Z,85.40
2018-07-15T20:36:10.368Z,86.20
2018-07-15T20:38:40.083Z,85.50
2018-07-15T20:41:09.842Z,83.90
2018-07-15T20:43:39.839Z,84.10
2018-07-15T20:46:09.780Z,85.90
2018-07-15T20:48:39.622Z,87.10
2018-07-15T20:51:09.983Z,87.00
2018-07-15T20:53:39.675Z,87.80
2018-07-15T20:56:09.377Z,87.80
2018-07-15T20:58:39.350Z,86.80
2018-07-15T21:01:09.286Z,86.70
2018-07-15T21:03:38.968Z,87.30
2018-07-15T21:06:08.676Z,87.20
2018-07-15T21:08:38.426Z,87.10
2018-07-15T21:11:08.083Z,87.40
2018-07-15T21:13:38.059Z,88.00
2018-07-15T21:16:07.738Z,88.00
2018-07-15T21:21:06.935Z,88.50
2018-07-15T21:23:36.635Z,88.60
2018-07-15T21:26:06.326Z,88.30
2018-07-15T21:28:36.027Z,88.70
2018-07-15T21:31:05.973Z,88.20
2018-07-15T21:33:35.678Z,88.40
2018-07-15T21:36:05.564Z,88.00
2018-07-15T21:38:36.598Z,88.10
2018-07-15T21:41:06.290Z,88.30
2018-07-15T21:43:35.994Z,88.70
2018-07-15T21:46:05.695Z,89.50
2018-07-15T21:48:35.515Z,89.40
2018-07-15T21:51:05.267Z,89.30
2018-07-15T21:53:35.621Z,90.10
2018-07-15T21:56:05.366Z,89.50
2018-07-15T21:58:35.432Z,89.40
2018-07-15T22:01:05.191Z,89.30
2018-07-15T22:03:35.352Z,89.60
2018-07-15T22:06:05.410Z,90.00
2018-07-15T22:09:46.986Z,89.40
2018-07-15T22:12:16.696Z,89.50
2018-07-15T22:14:46.627Z,89.80
2018-07-15T22:17:16.348Z,90.00
2018-07-15T22:19:46.483Z,90.10
2018-07-15T22:22:16.875Z,90.40
2018-07-15T22:24:46.582Z,90.20
2018-07-15T22:27:16.282Z,90.20
2018-07-15T22:29:45.989Z,90.00
2018-07-15T22:32:15.679Z,89.90
2018-07-15T22:34:45.426Z,90.20
2018-07-15T22:37:15.099Z,90.20
2018-07-15T22:39:44.787Z,89.80
2018-07-15T22:42:14.476Z,89.10
2018-07-15T22:44:44.506Z,89.60
2018-07-15T22:52:12.759Z,88.30
2018-07-15T22:54:42.477Z,88.40
2018-07-15T22:57:12.775Z,87.50
2018-07-15T22:59:42.456Z,86.80
2018-07-15T23:02:12.160Z,88.00
2018-07-15T23:05:56.642Z,87.80
2018-07-15T23:08:27.422Z,87.50
2018-07-15T23:10:57.464Z,87.80
2018-07-15T23:13:27.159Z,89.10
2018-07-15T23:15:57.742Z,88.80
2018-07-15T23:18:27.471Z,88.40
2018-07-15T23:20:57.182Z,88.80
2018-07-15T23:23:26.876Z,88.70
2018-07-15T23:25:56.563Z,88.90
2018-07-15T23:28:26.249Z,88.90
2018-07-15T23:30:56.018Z,89.40
2018-07-15T23:33:25.701Z,89.20
2018-07-15T23:35:55.435Z,89.20
2018-07-15T23:38:25.130Z,89.00
2018-07-15T23:40:54.872Z,88.80
2018-07-15T23:43:25.136Z,88.60
2018-07-15T23:45:58.063Z,88.50
2018-07-15T23:48:27.800Z,89.90
2018-07-15T23:50:57.855Z,90.30
2018-07-15T23:53:27.537Z,90.50
2018-07-15T23:55:57.578Z,90.30
2018-07-15T23:58:27.275Z,89.30
